WZZ64LB LPPT-LHBP
Flight info
| Callsign | WZZ64LB |
|---|---|
| Flight time | 2h 0m |
| Altitude | 36000 |
| Route | IXIDA DCT PINOX DCT TOSDI DCT ZMR DCT NEA DCT DGO DCT LPA DCT GOSVI DCT TOPTU DCT TOU DCT GAI DCT MEN DCT NINUN DCT LATAM DCT ETREK DCT LTP DCT SOPLO DCT OMASI DCT KINNI DCT SOSAL DCT KORED DCT GAMSA DCT TULSI DCT INPUL DCT MAREG DCT ANEXA |
| Aircraft | A21N/M-SDE2E3FGHIRWXY/LB1 |
Departure
| Time | 2026-05-07 06:18 |
|---|---|
| Airport | Lisbon Humberto Delgado Airport (LPPT) |
Arrival
| Time | 2026-05-07 08:18 |
|---|---|
| Airport | Budapest Liszt Ferenc International Airport (LHBP) |
| Time | Latitude | Longitude | Altitude | Speed | Heading |
|---|---|---|---|---|---|
| 2026-05-07 05:40 | 38.76457 | -9.13781 | 351 ft | 0 kts | 168° |
| 2026-05-07 06:01 | 38.76473 | -9.13786 | 358 ft | 4 kts | 168° |
| 2026-05-07 06:01 | 38.76499 | -9.13792 | 358 ft | 4 kts | 181° |
| 2026-05-07 06:02 | 38.76523 | -9.13784 | 359 ft | 4 kts | 219° |
| 2026-05-07 06:02 | 38.76535 | -9.13763 | 357 ft | 1 kts | 258° |
| 2026-05-07 06:02 | 38.76535 | -9.13762 | 357 ft | 1 kts | 258° |
| 2026-05-07 06:05 | 38.76535 | -9.13767 | 361 ft | 1 kts | 258° |
| 2026-05-07 06:05 | 38.76533 | -9.13779 | 361 ft | 2 kts | 258° |
| 2026-05-07 06:05 | 38.76529 | -9.13802 | 359 ft | 4 kts | 258° |
| 2026-05-07 06:06 | 38.76521 | -9.13849 | 353 ft | 7 kts | 258° |
| 2026-05-07 06:06 | 38.76522 | -9.13915 | 350 ft | 8 kts | 306° |
| 2026-05-07 06:06 | 38.76581 | -9.13912 | 354 ft | 12 kts | 57° |
| 2026-05-07 06:06 | 38.76603 | -9.13794 | 356 ft | 15 kts | 78° |
| 2026-05-07 06:07 | 38.76619 | -9.13702 | 355 ft | 16 kts | 78° |
| 2026-05-07 06:07 | 38.76643 | -9.13552 | 355 ft | 18 kts | 78° |
| 2026-05-07 06:07 | 38.76705 | -9.13420 | 352 ft | 19 kts | 32° |
| 2026-05-07 06:07 | 38.76765 | -9.13268 | 352 ft | 19 kts | 62° |
| 2026-05-07 06:08 | 38.76820 | -9.13242 | 343 ft | 6 kts | 349° |
| 2026-05-07 06:08 | 38.76872 | -9.13255 | 349 ft | 9 kts | 349° |
| 2026-05-07 06:08 | 38.76938 | -9.13273 | 344 ft | 11 kts | 347° |
| 2026-05-07 06:08 | 38.77021 | -9.13296 | 352 ft | 14 kts | 348° |
| 2026-05-07 06:09 | 38.77127 | -9.13324 | 344 ft | 17 kts | 348° |
| 2026-05-07 06:09 | 38.77253 | -9.13359 | 352 ft | 20 kts | 348° |
| 2026-05-07 06:09 | 38.77397 | -9.13396 | 348 ft | 22 kts | 348° |
| 2026-05-07 06:09 | 38.77553 | -9.13438 | 354 ft | 23 kts | 347° |
| 2026-05-07 06:10 | 38.77711 | -9.13484 | 358 ft | 23 kts | 347° |
| 2026-05-07 06:10 | 38.77858 | -9.13504 | 365 ft | 20 kts | 17° |
| 2026-05-07 06:10 | 38.77992 | -9.13435 | 364 ft | 22 kts | 21° |
| 2026-05-07 06:10 | 38.78140 | -9.13360 | 363 ft | 24 kts | 22° |
| 2026-05-07 06:11 | 38.78281 | -9.13285 | 362 ft | 18 kts | 22° |
| 2026-05-07 06:11 | 38.78381 | -9.13234 | 364 ft | 13 kts | 19° |
| 2026-05-07 06:11 | 38.78448 | -9.13218 | 367 ft | 6 kts | 354° |
| 2026-05-07 06:11 | 38.78383 | -9.13230 | 363 ft | 1 kts | 204° |
| 2026-05-07 06:12 | 38.78355 | -9.13245 | 369 ft | 7 kts | 203° |
| 2026-05-07 06:12 | 38.78288 | -9.13281 | 369 ft | 13 kts | 202° |
| 2026-05-07 06:12 | 38.78186 | -9.13335 | 365 ft | 19 kts | 202° |
| 2026-05-07 06:12 | 38.78052 | -9.13406 | 363 ft | 23 kts | 202° |
| 2026-05-07 06:13 | 38.77892 | -9.13493 | 363 ft | 27 kts | 203° |
| 2026-05-07 06:13 | 38.77713 | -9.13590 | 359 ft | 28 kts | 203° |
| 2026-05-07 06:13 | 38.77541 | -9.13681 | 366 ft | 20 kts | 202° |
| 2026-05-07 06:13 | 38.77399 | -9.13755 | 364 ft | 25 kts | 202° |
| 2026-05-07 06:14 | 38.77231 | -9.13845 | 363 ft | 27 kts | 203° |
| 2026-05-07 06:14 | 38.77048 | -9.13947 | 360 ft | 31 kts | 204° |
| 2026-05-07 06:14 | 38.76939 | -9.14008 | 353 ft | 18 kts | 201° |
| 2026-05-07 06:14 | 38.76810 | -9.14073 | 352 ft | 22 kts | 202° |
| 2026-05-07 06:15 | 38.76716 | -9.14121 | 354 ft | 8 kts | 202° |
| 2026-05-07 06:15 | 38.76644 | -9.14159 | 346 ft | 7 kts | 202° |
| 2026-05-07 06:15 | 38.76586 | -9.14190 | 349 ft | 11 kts | 202° |
| 2026-05-07 06:15 | 38.76556 | -9.14205 | 349 ft | 3 kts | 202° |
| 2026-05-07 06:16 | 38.76531 | -9.14239 | 350 ft | 8 kts | 250° |
| 2026-05-07 06:16 | 38.76534 | -9.14308 | 337 ft | 8 kts | 295° |
| 2026-05-07 06:16 | 38.76575 | -9.14396 | 335 ft | 14 kts | 318° |
| 2026-05-07 06:16 | 38.76641 | -9.14398 | 337 ft | 10 kts | 25° |
| 2026-05-07 06:17 | 38.76882 | -9.14259 | 355 ft | 68 kts | 23° |
| 2026-05-07 06:17 | 38.77508 | -9.13928 | 367 ft | 129 kts | 22° |
| 2026-05-07 06:17 | 38.78502 | -9.13391 | 403 ft | 175 kts | 21° |
| 2026-05-07 06:17 | 38.79640 | -9.12765 | 901 ft | 174 kts | 21° |
| 2026-05-07 06:18 | 38.80711 | -9.12101 | 1606 ft | 171 kts | 24° |
| 2026-05-07 06:18 | 38.81766 | -9.11309 | 2189 ft | 179 kts | 30° |
| 2026-05-07 06:18 | 38.82906 | -9.10374 | 2538 ft | 209 kts | 29° |
| 2026-05-07 06:18 | 38.84211 | -9.09330 | 3078 ft | 232 kts | 30° |
| 2026-05-07 06:19 | 38.85647 | -9.08260 | 3667 ft | 250 kts | 28° |
| 2026-05-07 06:19 | 38.87208 | -9.07162 | 4409 ft | 262 kts | 27° |
| 2026-05-07 06:19 | 38.88842 | -9.06019 | 5199 ft | 272 kts | 30° |
| 2026-05-07 06:19 | 38.90388 | -9.04580 | 6024 ft | 278 kts | 40° |
| 2026-05-07 06:20 | 38.91857 | -9.02920 | 6849 ft | 283 kts | 43° |
| 2026-05-07 06:20 | 38.93323 | -9.01200 | 7709 ft | 286 kts | 43° |
| 2026-05-07 06:20 | 38.94801 | -8.99461 | 8567 ft | 289 kts | 43° |
| 2026-05-07 06:20 | 38.96295 | -8.97709 | 9433 ft | 293 kts | 42° |
| 2026-05-07 06:21 | 38.97814 | -8.95930 | 10233 ft | 298 kts | 42° |
| 2026-05-07 06:21 | 38.99377 | -8.94103 | 10731 ft | 314 kts | 42° |
| 2026-05-07 06:21 | 39.01062 | -8.92134 | 10913 ft | 340 kts | 42° |
| 2026-05-07 06:21 | 39.02879 | -8.90011 | 11060 ft | 364 kts | 42° |
| 2026-05-07 06:22 | 39.04796 | -8.87769 | 11513 ft | 377 kts | 42° |
| 2026-05-07 06:22 | 39.08739 | -8.83153 | 12914 ft | 387 kts | 42° |
| 2026-05-07 06:22 | 39.10743 | -8.80803 | 13661 ft | 391 kts | 41° |
| 2026-05-07 06:23 | 39.12761 | -8.78435 | 14323 ft | 395 kts | 41° |
| 2026-05-07 06:23 | 39.14776 | -8.76069 | 14982 ft | 398 kts | 41° |
| 2026-05-07 06:23 | 39.16787 | -8.73596 | 15643 ft | 402 kts | 45° |
| 2026-05-07 06:23 | 39.18726 | -8.70881 | 16320 ft | 406 kts | 48° |
| 2026-05-07 06:24 | 39.20583 | -8.68174 | 16928 ft | 410 kts | 48° |
| 2026-05-07 06:24 | 39.22465 | -8.65410 | 17557 ft | 414 kts | 48° |
| 2026-05-07 06:24 | 39.24370 | -8.62610 | 18189 ft | 417 kts | 48° |
| 2026-05-07 06:24 | 39.26298 | -8.59778 | 18729 ft | 421 kts | 48° |
| 2026-05-07 06:25 | 39.28232 | -8.56935 | 19283 ft | 423 kts | 48° |
| 2026-05-07 06:25 | 39.30183 | -8.54067 | 19824 ft | 425 kts | 48° |
| 2026-05-07 06:25 | 39.32141 | -8.51185 | 20353 ft | 428 kts | 48° |
| 2026-05-07 06:25 | 39.34113 | -8.48281 | 20892 ft | 431 kts | 48° |
| 2026-05-07 06:26 | 39.36094 | -8.45361 | 21426 ft | 434 kts | 48° |
| 2026-05-07 06:26 | 39.38090 | -8.42418 | 21976 ft | 436 kts | 48° |
| 2026-05-07 06:26 | 39.40098 | -8.39453 | 22492 ft | 439 kts | 48° |
| 2026-05-07 06:26 | 39.42091 | -8.36507 | 23023 ft | 442 kts | 48° |
| 2026-05-07 06:27 | 39.44121 | -8.33504 | 23522 ft | 445 kts | 48° |
| 2026-05-07 06:27 | 39.46171 | -8.30470 | 23838 ft | 451 kts | 48° |
| 2026-05-07 06:27 | 39.48241 | -8.27402 | 24227 ft | 454 kts | 48° |
| 2026-05-07 06:27 | 39.50346 | -8.24276 | 24658 ft | 456 kts | 48° |
| 2026-05-07 06:28 | 39.52411 | -8.21210 | 25021 ft | 459 kts | 48° |
| 2026-05-07 06:28 | 39.54518 | -8.18079 | 25361 ft | 463 kts | 48° |
| 2026-05-07 06:28 | 39.58438 | -8.12243 | 26094 ft | 466 kts | 48° |
| 2026-05-07 06:28 | 39.62720 | -8.05856 | 26974 ft | 468 kts | 47° |
| 2026-05-07 06:29 | 39.66999 | -7.99521 | 27911 ft | 466 kts | 46° |
| 2026-05-07 06:29 | 39.71383 | -7.93329 | 28812 ft | 465 kts | 45° |
| 2026-05-07 06:29 | 39.75776 | -7.87180 | 29672 ft | 464 kts | 45° |
| 2026-05-07 06:29 | 39.80140 | -7.81030 | 30435 ft | 462 kts | 45° |
| 2026-05-07 06:30 | 39.84485 | -7.74870 | 31091 ft | 461 kts | 45° |
| 2026-05-07 06:30 | 39.88824 | -7.68702 | 31728 ft | 460 kts | 45° |
| 2026-05-07 06:30 | 39.93139 | -7.62558 | 32344 ft | 459 kts | 45° |
| 2026-05-07 06:30 | 39.97466 | -7.56389 | 32628 ft | 466 kts | 46° |
| 2026-05-07 06:31 | 40.01790 | -7.50207 | 33171 ft | 466 kts | 46° |
| 2026-05-07 06:31 | 40.06146 | -7.43965 | 33674 ft | 466 kts | 46° |
| 2026-05-07 06:31 | 40.10516 | -7.37691 | 34130 ft | 466 kts | 46° |
| 2026-05-07 06:31 | 40.14864 | -7.31435 | 34500 ft | 466 kts | 46° |
| 2026-05-07 06:32 | 40.19228 | -7.25146 | 34854 ft | 466 kts | 46° |
| 2026-05-07 06:32 | 40.23592 | -7.18844 | 35056 ft | 471 kts | 47° |
| 2026-05-07 06:32 | 40.28020 | -7.12442 | 35356 ft | 472 kts | 46° |
| 2026-05-07 06:32 | 40.32803 | -7.06588 | 35741 ft | 470 kts | 41° |
| 2026-05-07 06:33 | 40.37701 | -7.00895 | 35905 ft | 473 kts | 40° |
| 2026-05-07 06:33 | 40.42645 | -6.95181 | 35903 ft | 472 kts | 40° |
| 2026-05-07 06:33 | 40.52458 | -6.83777 | 35906 ft | 471 kts | 41° |
| 2026-05-07 06:34 | 40.62317 | -6.72258 | 35912 ft | 476 kts | 41° |
| 2026-05-07 06:34 | 40.72129 | -6.60746 | 35912 ft | 475 kts | 41° |
| 2026-05-07 06:35 | 40.82020 | -6.49094 | 35911 ft | 476 kts | 41° |
| 2026-05-07 06:35 | 40.91907 | -6.37398 | 35917 ft | 478 kts | 42° |
| 2026-05-07 06:36 | 41.01817 | -6.25625 | 35917 ft | 478 kts | 42° |
| 2026-05-07 06:36 | 41.11717 | -6.13813 | 35925 ft | 478 kts | 42° |
| 2026-05-07 06:37 | 41.21604 | -6.01966 | 35933 ft | 480 kts | 42° |
| 2026-05-07 06:37 | 41.31498 | -5.90060 | 35938 ft | 480 kts | 42° |
| 2026-05-07 06:38 | 41.41320 | -5.78191 | 35942 ft | 480 kts | 42° |
| 2026-05-07 06:38 | 41.51152 | -5.66139 | 35940 ft | 480 kts | 48° |
| 2026-05-07 06:39 | 41.54739 | -5.58718 | 35948 ft | 476 kts | 66° |
| 2026-05-07 06:39 | 41.57524 | -5.50651 | 35947 ft | 477 kts | 68° |
| 2026-05-07 06:39 | 41.62863 | -5.34402 | 35947 ft | 477 kts | 68° |
| 2026-05-07 06:40 | 41.68224 | -5.18113 | 35931 ft | 479 kts | 68° |
| 2026-05-07 06:40 | 41.73536 | -5.01910 | 35916 ft | 479 kts | 68° |
| 2026-05-07 06:41 | 41.78880 | -4.85501 | 35913 ft | 480 kts | 68° |
| 2026-05-07 06:41 | 41.84198 | -4.69075 | 35924 ft | 481 kts | 68° |
| 2026-05-07 06:42 | 41.89503 | -4.52591 | 35959 ft | 481 kts | 68° |
| 2026-05-07 06:42 | 41.94785 | -4.36076 | 35970 ft | 481 kts | 68° |
| 2026-05-07 06:43 | 42.00044 | -4.19532 | 35974 ft | 481 kts | 68° |
| 2026-05-07 06:43 | 42.05470 | -4.03046 | 35978 ft | 481 kts | 65° |
| 2026-05-07 06:44 | 42.11240 | -3.86891 | 35974 ft | 481 kts | 66° |
| 2026-05-07 06:44 | 42.16954 | -3.70591 | 35982 ft | 481 kts | 66° |
| 2026-05-07 06:45 | 42.22642 | -3.54244 | 35970 ft | 481 kts | 66° |
| 2026-05-07 06:45 | 42.28311 | -3.37866 | 35975 ft | 480 kts | 66° |
| 2026-05-07 06:46 | 42.33819 | -3.21855 | 35996 ft | 480 kts | 66° |
| 2026-05-07 06:46 | 42.39427 | -3.05461 | 36012 ft | 480 kts | 66° |
| 2026-05-07 06:47 | 42.44738 | -2.88986 | 36016 ft | 478 kts | 78° |
| 2026-05-07 06:47 | 42.45459 | -2.80113 | 36018 ft | 474 kts | 90° |
| 2026-05-07 06:47 | 42.45635 | -2.71151 | 36011 ft | 474 kts | 91° |
| 2026-05-07 06:48 | 42.45821 | -2.53281 | 35999 ft | 475 kts | 91° |
| 2026-05-07 06:48 | 42.46036 | -2.35374 | 35992 ft | 475 kts | 90° |
| 2026-05-07 06:49 | 42.48514 | -2.17728 | 35992 ft | 479 kts | 79° |
| 2026-05-07 06:49 | 42.51472 | -2.00077 | 36008 ft | 480 kts | 79° |
| 2026-05-07 06:50 | 42.54204 | -1.83430 | 36004 ft | 481 kts | 79° |
| 2026-05-07 06:50 | 42.57056 | -1.65820 | 36006 ft | 481 kts | 79° |
| 2026-05-07 06:51 | 42.59894 | -1.48130 | 36003 ft | 481 kts | 79° |
| 2026-05-07 06:51 | 42.62722 | -1.30315 | 36023 ft | 483 kts | 79° |
| 2026-05-07 06:52 | 42.65532 | -1.12438 | 36024 ft | 483 kts | 79° |
| 2026-05-07 06:52 | 42.68312 | -0.94544 | 36025 ft | 484 kts | 79° |
| 2026-05-07 06:53 | 42.70693 | -0.79070 | 36021 ft | 484 kts | 79° |
| 2026-05-07 06:53 | 42.73417 | -0.61179 | 36014 ft | 486 kts | 79° |
| 2026-05-07 06:54 | 42.76129 | -0.43169 | 36003 ft | 486 kts | 80° |
| 2026-05-07 06:54 | 42.78383 | -0.28042 | 36008 ft | 486 kts | 80° |
| 2026-05-07 06:55 | 42.80326 | -0.19373 | 36010 ft | 486 kts | 62° |
| 2026-05-07 06:55 | 42.84094 | -0.11976 | 36013 ft | 485 kts | 51° |
| 2026-05-07 06:55 | 42.92660 | 0.02294 | 36008 ft | 487 kts | 49° |
| 2026-05-07 06:56 | 43.01258 | 0.16629 | 36017 ft | 487 kts | 49° |
| 2026-05-07 06:56 | 43.09791 | 0.30989 | 36018 ft | 486 kts | 49° |
| 2026-05-07 06:57 | 43.18288 | 0.45349 | 36016 ft | 486 kts | 49° |
| 2026-05-07 06:57 | 43.26812 | 0.59828 | 36023 ft | 486 kts | 49° |
| 2026-05-07 06:58 | 43.35299 | 0.74315 | 36028 ft | 486 kts | 49° |
| 2026-05-07 06:58 | 43.43694 | 0.88716 | 36031 ft | 487 kts | 49° |
| 2026-05-07 06:59 | 43.52136 | 1.03271 | 36016 ft | 484 kts | 49° |
| 2026-05-07 06:59 | 43.60529 | 1.17813 | 36027 ft | 485 kts | 49° |
| 2026-05-07 07:00 | 43.68891 | 1.32406 | 36020 ft | 483 kts | 51° |
| 2026-05-07 07:00 | 43.76883 | 1.47384 | 36017 ft | 483 kts | 52° |
| 2026-05-07 07:01 | 43.84836 | 1.62397 | 36011 ft | 482 kts | 52° |
| 2026-05-07 07:01 | 43.92743 | 1.77343 | 36005 ft | 480 kts | 52° |
| 2026-05-07 07:02 | 43.99994 | 1.91482 | 36000 ft | 481 kts | 53° |
| 2026-05-07 07:02 | 44.07535 | 2.06740 | 35998 ft | 479 kts | 53° |
| 2026-05-07 07:03 | 44.15085 | 2.22001 | 35996 ft | 479 kts | 54° |
| 2026-05-07 07:03 | 44.22616 | 2.37300 | 35995 ft | 479 kts | 53° |
| 2026-05-07 07:04 | 44.30138 | 2.52664 | 36018 ft | 478 kts | 54° |
| 2026-05-07 07:04 | 44.37578 | 2.67940 | 36012 ft | 479 kts | 54° |
| 2026-05-07 07:05 | 44.43864 | 2.80907 | 36008 ft | 479 kts | 54° |
| 2026-05-07 07:05 | 44.51304 | 2.96335 | 36003 ft | 479 kts | 54° |
| 2026-05-07 07:06 | 44.56800 | 3.07784 | 36016 ft | 479 kts | 54° |
| 2026-05-07 07:06 | 44.63833 | 3.23284 | 36021 ft | 480 kts | 59° |
| 2026-05-07 07:07 | 44.70290 | 3.39758 | 36032 ft | 480 kts | 59° |
| 2026-05-07 07:07 | 44.76772 | 3.56068 | 36034 ft | 480 kts | 59° |
| 2026-05-07 07:08 | 44.82885 | 3.71493 | 36035 ft | 480 kts | 59° |
| 2026-05-07 07:08 | 44.89042 | 3.87126 | 36035 ft | 481 kts | 59° |
| 2026-05-07 07:09 | 44.94848 | 4.01947 | 36036 ft | 480 kts | 59° |
| 2026-05-07 07:09 | 45.01103 | 4.18004 | 36036 ft | 480 kts | 59° |
| 2026-05-07 07:10 | 45.07516 | 4.34561 | 36029 ft | 481 kts | 59° |
| 2026-05-07 07:10 | 45.13884 | 4.51104 | 36026 ft | 480 kts | 59° |
| 2026-05-07 07:11 | 45.20252 | 4.67746 | 36022 ft | 480 kts | 60° |
| 2026-05-07 07:11 | 45.26598 | 4.84430 | 36017 ft | 481 kts | 60° |
| 2026-05-07 07:12 | 45.32907 | 5.01123 | 36013 ft | 477 kts | 60° |
| 2026-05-07 07:12 | 45.39166 | 5.17779 | 36017 ft | 479 kts | 60° |
| 2026-05-07 07:13 | 45.45432 | 5.34555 | 36036 ft | 479 kts | 60° |
| 2026-05-07 07:13 | 45.53284 | 5.49485 | 36013 ft | 471 kts | 40° |
| 2026-05-07 07:14 | 45.62972 | 5.61884 | 36012 ft | 472 kts | 39° |
| 2026-05-07 07:14 | 45.72674 | 5.74298 | 36018 ft | 471 kts | 39° |
| 2026-05-07 07:15 | 45.82445 | 5.86861 | 36036 ft | 471 kts | 40° |
| 2026-05-07 07:15 | 45.92175 | 5.99424 | 36015 ft | 472 kts | 40° |
| 2026-05-07 07:16 | 46.01944 | 6.12102 | 36021 ft | 472 kts | 40° |
| 2026-05-07 07:16 | 46.11586 | 6.24842 | 36014 ft | 470 kts | 43° |
| 2026-05-07 07:17 | 46.20870 | 6.38146 | 36010 ft | 470 kts | 43° |
| 2026-05-07 07:17 | 46.30131 | 6.51401 | 36005 ft | 471 kts | 43° |
| 2026-05-07 07:18 | 46.39419 | 6.64733 | 36005 ft | 471 kts | 44° |
| 2026-05-07 07:18 | 46.48773 | 6.78232 | 35997 ft | 470 kts | 44° |
| 2026-05-07 07:19 | 46.57712 | 6.91885 | 36002 ft | 472 kts | 50° |
| 2026-05-07 07:19 | 46.66027 | 7.06799 | 36010 ft | 474 kts | 50° |
| 2026-05-07 07:20 | 46.74291 | 7.21783 | 36014 ft | 474 kts | 50° |
| 2026-05-07 07:20 | 46.82462 | 7.36657 | 36010 ft | 472 kts | 51° |
| 2026-05-07 07:21 | 46.85931 | 7.44955 | 36021 ft | 474 kts | 68° |
| 2026-05-07 07:21 | 46.88348 | 7.53825 | 35994 ft | 475 kts | 69° |
| 2026-05-07 07:21 | 46.93011 | 7.71950 | 35997 ft | 475 kts | 70° |
| 2026-05-07 07:22 | 46.97637 | 7.89963 | 36002 ft | 473 kts | 70° |
| 2026-05-07 07:22 | 47.02255 | 8.08044 | 36015 ft | 473 kts | 70° |
| 2026-05-07 07:23 | 47.06851 | 8.26188 | 36015 ft | 474 kts | 70° |
| 2026-05-07 07:23 | 47.11422 | 8.44383 | 36001 ft | 475 kts | 70° |
| 2026-05-07 07:24 | 47.15963 | 8.62601 | 36009 ft | 474 kts | 70° |
| 2026-05-07 07:24 | 47.20444 | 8.80725 | 36015 ft | 476 kts | 71° |
| 2026-05-07 07:25 | 47.27205 | 9.08351 | 36010 ft | 475 kts | 71° |
| 2026-05-07 07:26 | 47.31648 | 9.26694 | 36003 ft | 477 kts | 71° |
| 2026-05-07 07:26 | 47.36049 | 9.45012 | 36018 ft | 477 kts | 72° |
| 2026-05-07 07:27 | 47.40458 | 9.63566 | 36018 ft | 477 kts | 74° |
| 2026-05-07 07:27 | 47.43431 | 9.82659 | 36014 ft | 477 kts | 80° |
| 2026-05-07 07:28 | 47.46185 | 10.01828 | 36004 ft | 477 kts | 80° |
| 2026-05-07 07:28 | 47.48936 | 10.21086 | 35991 ft | 480 kts | 81° |
| 2026-05-07 07:29 | 47.51663 | 10.40412 | 35981 ft | 480 kts | 81° |
| 2026-05-07 07:29 | 47.54357 | 10.59766 | 35981 ft | 480 kts | 81° |
| 2026-05-07 07:30 | 47.56999 | 10.78991 | 35981 ft | 480 kts | 81° |
| 2026-05-07 07:30 | 47.59646 | 10.98496 | 35971 ft | 481 kts | 82° |
| 2026-05-07 07:31 | 47.62249 | 11.17961 | 35975 ft | 482 kts | 82° |
| 2026-05-07 07:31 | 47.64834 | 11.37553 | 35976 ft | 482 kts | 82° |
| 2026-05-07 07:32 | 47.67295 | 11.56458 | 35978 ft | 481 kts | 83° |
| 2026-05-07 07:32 | 47.69803 | 11.75996 | 35976 ft | 481 kts | 83° |
| 2026-05-07 07:33 | 47.72610 | 11.95471 | 35969 ft | 484 kts | 81° |
| 2026-05-07 07:33 | 47.75531 | 12.15013 | 35967 ft | 484 kts | 82° |
| 2026-05-07 07:34 | 47.78379 | 12.34571 | 35967 ft | 483 kts | 82° |
| 2026-05-07 07:34 | 47.81178 | 12.54035 | 35972 ft | 481 kts | 82° |
| 2026-05-07 07:35 | 47.83921 | 12.73359 | 35968 ft | 481 kts | 82° |
| 2026-05-07 07:35 | 47.85986 | 12.93006 | 35973 ft | 479 kts | 86° |
| 2026-05-07 07:36 | 47.87884 | 13.12656 | 35976 ft | 479 kts | 86° |
| 2026-05-07 07:36 | 47.89808 | 13.32357 | 35985 ft | 480 kts | 86° |
| 2026-05-07 07:37 | 47.91693 | 13.52056 | 35980 ft | 480 kts | 87° |
| 2026-05-07 07:37 | 47.93545 | 13.71787 | 35975 ft | 481 kts | 87° |
| 2026-05-07 07:38 | 47.95065 | 13.88269 | 35981 ft | 483 kts | 87° |
| 2026-05-07 07:38 | 47.96864 | 14.08095 | 35996 ft | 483 kts | 87° |
| 2026-05-07 07:39 | 47.98631 | 14.27998 | 35985 ft | 484 kts | 88° |
| 2026-05-07 07:39 | 48.00366 | 14.47912 | 35977 ft | 484 kts | 88° |
| 2026-05-07 07:40 | 48.02067 | 14.67856 | 35972 ft | 485 kts | 89° |
| 2026-05-07 07:40 | 48.03737 | 14.87884 | 35966 ft | 485 kts | 89° |
| 2026-05-07 07:41 | 48.05370 | 15.07862 | 35953 ft | 485 kts | 89° |
| 2026-05-07 07:41 | 48.06970 | 15.27921 | 35964 ft | 489 kts | 89° |
| 2026-05-07 07:42 | 48.08554 | 15.48161 | 35962 ft | 489 kts | 89° |
| 2026-05-07 07:42 | 48.10084 | 15.68221 | 35958 ft | 487 kts | 89° |
| 2026-05-07 07:43 | 48.11315 | 15.84693 | 35957 ft | 488 kts | 89° |
| 2026-05-07 07:43 | 48.12057 | 15.94779 | 35946 ft | 487 kts | 89° |
| 2026-05-07 07:44 | 48.12788 | 16.04828 | 35944 ft | 484 kts | 89° |
| 2026-05-07 07:44 | 48.13508 | 16.14843 | 35939 ft | 483 kts | 89° |
| 2026-05-07 07:45 | 48.14215 | 16.24856 | 35626 ft | 485 kts | 89° |
| 2026-05-07 07:45 | 48.14567 | 16.29885 | 35094 ft | 486 kts | 89° |
| 2026-05-07 07:45 | 48.14917 | 16.34910 | 34542 ft | 485 kts | 89° |
| 2026-05-07 07:45 | 48.15267 | 16.39934 | 34035 ft | 484 kts | 90° |
| 2026-05-07 07:46 | 48.15607 | 16.44871 | 33410 ft | 483 kts | 89° |
| 2026-05-07 07:46 | 48.15948 | 16.49876 | 32823 ft | 484 kts | 89° |
| 2026-05-07 07:46 | 48.16287 | 16.54884 | 32246 ft | 484 kts | 89° |
| 2026-05-07 07:46 | 48.16625 | 16.59896 | 31683 ft | 484 kts | 89° |
| 2026-05-07 07:47 | 48.16961 | 16.64928 | 31125 ft | 485 kts | 89° |
| 2026-05-07 07:47 | 48.17297 | 16.69972 | 30578 ft | 485 kts | 89° |
| 2026-05-07 07:47 | 48.17628 | 16.74973 | 30047 ft | 486 kts | 89° |
| 2026-05-07 07:47 | 48.17961 | 16.80030 | 29453 ft | 486 kts | 89° |
| 2026-05-07 07:48 | 48.18290 | 16.85077 | 28838 ft | 487 kts | 89° |
| 2026-05-07 07:48 | 48.18619 | 16.90145 | 28223 ft | 489 kts | 89° |
| 2026-05-07 07:48 | 48.18783 | 16.95229 | 27614 ft | 484 kts | 99° |
| 2026-05-07 07:48 | 48.18214 | 17.00122 | 27065 ft | 476 kts | 110° |
| 2026-05-07 07:49 | 48.17299 | 17.04913 | 26496 ft | 476 kts | 112° |
| 2026-05-07 07:49 | 48.16311 | 17.09647 | 25952 ft | 478 kts | 113° |
| 2026-05-07 07:49 | 48.15302 | 17.14376 | 25412 ft | 476 kts | 113° |
| 2026-05-07 07:49 | 48.14292 | 17.19075 | 24879 ft | 474 kts | 113° |
| 2026-05-07 07:50 | 48.13279 | 17.23777 | 24355 ft | 470 kts | 113° |
| 2026-05-07 07:50 | 48.12277 | 17.28412 | 23842 ft | 467 kts | 113° |
| 2026-05-07 07:50 | 48.11285 | 17.32985 | 23276 ft | 465 kts | 113° |
| 2026-05-07 07:50 | 48.10287 | 17.37576 | 22675 ft | 462 kts | 113° |
| 2026-05-07 07:51 | 48.09296 | 17.42125 | 22101 ft | 459 kts | 113° |
| 2026-05-07 07:51 | 48.08310 | 17.46644 | 21507 ft | 455 kts | 113° |
| 2026-05-07 07:51 | 48.07331 | 17.51120 | 20952 ft | 451 kts | 113° |
| 2026-05-07 07:51 | 48.06356 | 17.55566 | 20401 ft | 448 kts | 113° |
| 2026-05-07 07:52 | 48.05388 | 17.59970 | 19858 ft | 444 kts | 113° |
| 2026-05-07 07:52 | 48.04427 | 17.64333 | 19324 ft | 441 kts | 113° |
| 2026-05-07 07:52 | 48.03469 | 17.68676 | 18797 ft | 438 kts | 113° |
| 2026-05-07 07:52 | 48.02516 | 17.72987 | 18262 ft | 435 kts | 113° |
| 2026-05-07 07:53 | 48.01567 | 17.77265 | 17682 ft | 433 kts | 113° |
| 2026-05-07 07:53 | 48.00629 | 17.81489 | 17165 ft | 430 kts | 112° |
| 2026-05-07 07:53 | 47.99682 | 17.85746 | 16631 ft | 427 kts | 112° |
| 2026-05-07 07:53 | 47.98748 | 17.89934 | 16120 ft | 424 kts | 112° |
| 2026-05-07 07:54 | 47.97818 | 17.94095 | 15618 ft | 420 kts | 112° |
| 2026-05-07 07:54 | 47.96898 | 17.98209 | 15127 ft | 417 kts | 112° |
| 2026-05-07 07:54 | 47.95988 | 18.02264 | 14646 ft | 415 kts | 112° |
| 2026-05-07 07:54 | 47.95075 | 18.06328 | 14158 ft | 412 kts | 112° |
| 2026-05-07 07:55 | 47.94164 | 18.10375 | 13678 ft | 409 kts | 111° |
| 2026-05-07 07:55 | 47.93265 | 18.14364 | 13132 ft | 402 kts | 111° |
| 2026-05-07 07:55 | 47.92387 | 18.18259 | 12616 ft | 391 kts | 111° |
| 2026-05-07 07:55 | 47.91530 | 18.22054 | 12100 ft | 381 kts | 112° |
| 2026-05-07 07:56 | 47.90694 | 18.25744 | 11594 ft | 372 kts | 112° |
| 2026-05-07 07:56 | 47.89877 | 18.29344 | 11193 ft | 357 kts | 112° |
| 2026-05-07 07:56 | 47.89117 | 18.32706 | 11054 ft | 327 kts | 112° |
| 2026-05-07 07:56 | 47.88411 | 18.35816 | 10937 ft | 311 kts | 113° |
| 2026-05-07 07:57 | 47.87669 | 18.38814 | 10841 ft | 307 kts | 118° |
| 2026-05-07 07:57 | 47.86692 | 18.41616 | 10748 ft | 302 kts | 127° |
| 2026-05-07 07:57 | 47.85447 | 18.44104 | 10648 ft | 298 kts | 137° |
| 2026-05-07 07:57 | 47.83962 | 18.46224 | 10550 ft | 294 kts | 146° |
| 2026-05-07 07:58 | 47.82288 | 18.47933 | 10457 ft | 289 kts | 155° |
| 2026-05-07 07:58 | 47.80487 | 18.49196 | 10356 ft | 285 kts | 164° |
| 2026-05-07 07:58 | 47.78621 | 18.50005 | 10256 ft | 281 kts | 172° |
| 2026-05-07 07:58 | 47.76696 | 18.50482 | 10160 ft | 280 kts | 176° |
| 2026-05-07 07:59 | 47.74777 | 18.50866 | 10070 ft | 279 kts | 176° |
| 2026-05-07 07:59 | 47.72846 | 18.51244 | 9972 ft | 279 kts | 176° |
| 2026-05-07 07:59 | 47.70923 | 18.51626 | 9878 ft | 278 kts | 176° |
| 2026-05-07 07:59 | 47.69006 | 18.52012 | 9773 ft | 278 kts | 176° |
| 2026-05-07 08:00 | 47.67091 | 18.52401 | 9655 ft | 278 kts | 176° |
| 2026-05-07 08:00 | 47.65174 | 18.52792 | 9565 ft | 278 kts | 176° |
| 2026-05-07 08:00 | 47.63262 | 18.53202 | 9457 ft | 278 kts | 174° |
| 2026-05-07 08:00 | 47.61385 | 18.53889 | 9355 ft | 277 kts | 165° |
| 2026-05-07 08:01 | 47.59665 | 18.55027 | 9230 ft | 266 kts | 154° |
| 2026-05-07 08:01 | 47.58176 | 18.56553 | 9108 ft | 257 kts | 144° |
| 2026-05-07 08:01 | 47.56895 | 18.58390 | 9002 ft | 255 kts | 137° |
| 2026-05-07 08:01 | 47.55703 | 18.60334 | 8897 ft | 256 kts | 136° |
| 2026-05-07 08:02 | 47.54517 | 18.62305 | 8792 ft | 256 kts | 136° |
| 2026-05-07 08:02 | 47.53334 | 18.64269 | 8693 ft | 255 kts | 136° |
| 2026-05-07 08:02 | 47.52149 | 18.66230 | 8587 ft | 255 kts | 136° |
| 2026-05-07 08:02 | 47.50967 | 18.68180 | 8483 ft | 255 kts | 136° |
| 2026-05-07 08:03 | 47.49782 | 18.70130 | 8379 ft | 254 kts | 136° |
| 2026-05-07 08:03 | 47.48601 | 18.72071 | 8280 ft | 254 kts | 136° |
| 2026-05-07 08:03 | 47.47421 | 18.74005 | 8169 ft | 254 kts | 136° |
| 2026-05-07 08:03 | 47.46250 | 18.75926 | 8073 ft | 254 kts | 136° |
| 2026-05-07 08:04 | 47.45070 | 18.77857 | 7980 ft | 253 kts | 136° |
| 2026-05-07 08:04 | 47.43889 | 18.79788 | 7874 ft | 253 kts | 136° |
| 2026-05-07 08:04 | 47.42711 | 18.81711 | 7762 ft | 253 kts | 136° |
| 2026-05-07 08:04 | 47.41536 | 18.83628 | 7677 ft | 253 kts | 136° |
| 2026-05-07 08:05 | 47.40349 | 18.85564 | 7583 ft | 253 kts | 137° |
| 2026-05-07 08:05 | 47.39165 | 18.87494 | 7482 ft | 252 kts | 137° |
| 2026-05-07 08:05 | 47.38008 | 18.89377 | 7385 ft | 252 kts | 137° |
| 2026-05-07 08:05 | 47.36817 | 18.91318 | 7291 ft | 251 kts | 136° |
| 2026-05-07 08:06 | 47.35641 | 18.93237 | 7188 ft | 251 kts | 137° |
| 2026-05-07 08:06 | 47.34476 | 18.95136 | 7093 ft | 251 kts | 137° |
| 2026-05-07 08:06 | 47.33295 | 18.97058 | 6990 ft | 251 kts | 137° |
| 2026-05-07 08:06 | 47.32134 | 18.98945 | 6963 ft | 251 kts | 136° |
| 2026-05-07 08:07 | 47.30948 | 19.00865 | 6962 ft | 250 kts | 137° |
| 2026-05-07 08:07 | 47.29790 | 19.02741 | 6960 ft | 251 kts | 135° |
| 2026-05-07 08:07 | 47.28923 | 19.04988 | 6964 ft | 256 kts | 113° |
| 2026-05-07 08:07 | 47.28361 | 19.07487 | 6815 ft | 258 kts | 111° |
| 2026-05-07 08:08 | 47.27827 | 19.10005 | 6442 ft | 259 kts | 110° |
| 2026-05-07 08:08 | 47.27292 | 19.12530 | 6045 ft | 259 kts | 110° |
| 2026-05-07 08:08 | 47.26753 | 19.15065 | 5638 ft | 259 kts | 110° |
| 2026-05-07 08:08 | 47.26212 | 19.17584 | 5320 ft | 255 kts | 110° |
| 2026-05-07 08:09 | 47.25677 | 19.20058 | 5066 ft | 253 kts | 110° |
| 2026-05-07 08:09 | 47.25145 | 19.22520 | 4836 ft | 252 kts | 110° |
| 2026-05-07 08:09 | 47.24610 | 19.24982 | 4581 ft | 252 kts | 110° |
| 2026-05-07 08:09 | 47.24076 | 19.27426 | 4317 ft | 251 kts | 110° |
| 2026-05-07 08:10 | 47.23542 | 19.29867 | 4069 ft | 250 kts | 110° |
| 2026-05-07 08:10 | 47.23008 | 19.32290 | 3907 ft | 249 kts | 110° |
| 2026-05-07 08:10 | 47.22462 | 19.34740 | 3793 ft | 249 kts | 110° |
| 2026-05-07 08:10 | 47.21926 | 19.37158 | 3654 ft | 249 kts | 110° |
| 2026-05-07 08:11 | 47.21391 | 19.39563 | 3528 ft | 248 kts | 110° |
| 2026-05-07 08:11 | 47.20883 | 19.41979 | 3399 ft | 248 kts | 103° |
| 2026-05-07 08:11 | 47.20964 | 19.44497 | 3265 ft | 248 kts | 71° |
| 2026-05-07 08:11 | 47.21749 | 19.46734 | 3152 ft | 247 kts | 53° |
| 2026-05-07 08:12 | 47.22815 | 19.48718 | 3026 ft | 247 kts | 41° |
| 2026-05-07 08:12 | 47.24200 | 19.50155 | 2893 ft | 242 kts | 20° |
| 2026-05-07 08:12 | 47.25782 | 19.50659 | 2816 ft | 233 kts | 355° |
| 2026-05-07 08:12 | 47.27405 | 19.50476 | 2747 ft | 231 kts | 348° |
| 2026-05-07 08:13 | 47.28903 | 19.50018 | 2699 ft | 212 kts | 335° |
| 2026-05-07 08:13 | 47.30113 | 19.48973 | 2614 ft | 196 kts | 315° |
| 2026-05-07 08:13 | 47.31036 | 19.47595 | 2511 ft | 182 kts | 307° |
| 2026-05-07 08:13 | 47.31856 | 19.46229 | 2466 ft | 176 kts | 308° |
| 2026-05-07 08:14 | 47.32685 | 19.44881 | 2463 ft | 174 kts | 308° |
| 2026-05-07 08:14 | 47.33486 | 19.43591 | 2474 ft | 171 kts | 308° |
| 2026-05-07 08:14 | 47.34289 | 19.42300 | 2477 ft | 171 kts | 308° |
| 2026-05-07 08:14 | 47.35095 | 19.41001 | 2465 ft | 171 kts | 308° |
| 2026-05-07 08:15 | 47.35891 | 19.39723 | 2355 ft | 166 kts | 308° |
| 2026-05-07 08:15 | 47.36639 | 19.38523 | 2156 ft | 151 kts | 307° |
| 2026-05-07 08:15 | 47.37330 | 19.37406 | 1940 ft | 144 kts | 306° |
| 2026-05-07 08:15 | 47.38008 | 19.36309 | 1737 ft | 145 kts | 306° |
| 2026-05-07 08:16 | 47.38681 | 19.35225 | 1539 ft | 145 kts | 307° |
| 2026-05-07 08:16 | 47.39366 | 19.34128 | 1316 ft | 145 kts | 308° |
| 2026-05-07 08:16 | 47.40063 | 19.33012 | 1103 ft | 150 kts | 309° |
| 2026-05-07 08:16 | 47.40769 | 19.31871 | 999 ft | 153 kts | 309° |
| 2026-05-07 08:17 | 47.41490 | 19.30689 | 743 ft | 155 kts | 309° |
| 2026-05-07 08:17 | 47.42210 | 19.29535 | 528 ft | 151 kts | 310° |
| 2026-05-07 08:17 | 47.42877 | 19.28449 | 458 ft | 133 kts | 313° |
| 2026-05-07 08:17 | 47.43389 | 19.27618 | 470 ft | 83 kts | 312° |
| 2026-05-07 08:18 | 47.43656 | 19.27189 | 476 ft | 30 kts | 304° |
| 2026-05-07 08:18 | 47.43719 | 19.27022 | 472 ft | 17 kts | 297° |
| 2026-05-07 08:18 | 47.43756 | 19.26847 | 470 ft | 20 kts | 282° |
| 2026-05-07 08:18 | 47.43786 | 19.26637 | 463 ft | 21 kts | 282° |
| 2026-05-07 08:19 | 47.43817 | 19.26419 | 461 ft | 22 kts | 284° |
| 2026-05-07 08:19 | 47.43881 | 19.26270 | 461 ft | 14 kts | 312° |
| 2026-05-07 08:19 | 47.43906 | 19.26142 | 461 ft | 14 kts | 233° |
| 2026-05-07 08:19 | 47.43828 | 19.26036 | 459 ft | 16 kts | 223° |
| 2026-05-07 08:20 | 47.43744 | 19.25922 | 459 ft | 17 kts | 222° |
| 2026-05-07 08:20 | 47.43653 | 19.25799 | 460 ft | 18 kts | 221° |
| 2026-05-07 08:20 | 47.43555 | 19.25671 | 460 ft | 19 kts | 221° |
| 2026-05-07 08:20 | 47.43453 | 19.25534 | 460 ft | 20 kts | 223° |
| 2026-05-07 08:21 | 47.43370 | 19.25432 | 460 ft | 11 kts | 198° |
| 2026-05-07 08:21 | 47.43303 | 19.25495 | 460 ft | 14 kts | 132° |
| 2026-05-07 08:21 | 47.43237 | 19.25602 | 460 ft | 11 kts | 132° |
| 2026-05-07 08:21 | 47.43192 | 19.25682 | 460 ft | 8 kts | 112° |
| 2026-05-07 08:22 | 47.43212 | 19.25740 | 460 ft | 4 kts | 42° |
| 2026-05-07 08:22 | 47.43242 | 19.25780 | 460 ft | 2 kts | 42° |
| 2026-05-07 08:22 | 47.43244 | 19.25783 | 460 ft | 0 kts | 42° |